ΕΜΥ, Εθνική Μετεωρολογική Υπηρεσία - Δελτία Καιρού, Προγνώσεις

ΑΕΡΟΝΑΥΤΙΛΙΑ

GREEK AIRPORTS CODES

LGMK 051650Z 35014KT 9999 SCT020 12/07 Q1024 RMK FEW080=

EUROPEAN AIRPORTS CODES